Time;durP1;ratioP1;P1;durP2;ratioP2;P2;SDS_P1;SDS_P2;PMS_P1;PMS_P2;Temp;Humidity;BMP_temperature;BMP_pressure;BME280_temperature;BME280_humidity;BME280_pressure;Samples;Min_cycle;Max_cycle;Signal;HPM_P1;HPM_P2
2022/02/13 00:01:11;;;;;;;8.90;7.47;;;;;;;0.46;82.06;99373.59;5025695;27;103813;-75
2022/02/13 00:03:39;;;;;;;10.93;8.80;;;;;;;0.55;81.56;99365.59;5023025;27;103193;-74
2022/02/13 00:06:08;;;;;;;12.87;9.83;;;;;;;0.45;81.04;99361.47;5027554;27;103276;-77
2022/02/13 00:08:37;;;;;;;13.10;9.10;;;;;;;0.47;81.66;99359.72;5024661;27;102704;-74
2022/02/13 00:11:16;;;;;;;10.13;8.00;;;;;;;0.54;81.79;99358.69;5020286;27;102785;-74
2022/02/13 00:13:46;;;;;;;11.90;9.90;;;;;;;0.62;81.30;99355.06;5023053;27;104617;-74
2022/02/13 00:16:15;;;;;;;11.40;8.70;;;;;;;0.64;80.96;99355.88;5025368;27;103209;-75
2022/02/13 00:18:44;;;;;;;11.47;8.73;;;;;;;0.67;81.02;99345.41;5026687;27;102663;-77
2022/02/13 00:21:35;;;;;;;7.70;6.90;;;;;;;0.63;81.20;99348.97;5020119;27;102700;-77
2022/02/13 00:24:03;;;;;;;11.53;7.63;;;;;;;0.65;81.26;99347.22;5027589;27;103163;-74
2022/02/13 00:26:31;;;;;;;10.00;7.70;;;;;;;0.65;81.01;99344.59;5023941;27;103200;-76
2022/02/13 00:29:03;;;;;;;12.43;9.63;;;;;;;0.59;81.13;99346.44;5030163;27;102673;-77
2022/02/13 00:31:33;;;;;;;10.83;8.03;;;;;;;0.64;81.14;99342.88;5024880;27;103606;-74
2022/02/13 00:34:02;;;;;;;10.30;8.10;;;;;;;0.66;81.43;99346.28;5023086;27;103224;-74
2022/02/13 00:36:31;;;;;;;10.40;9.10;;;;;;;0.68;81.56;99337.56;5024440;27;103154;-74
2022/02/13 00:38:59;;;;;;;9.60;7.67;;;;;;;0.70;81.19;99332.34;5025118;27;102561;-75
2022/02/13 00:41:27;;;;;;;9.63;7.53;;;;;;;0.71;81.22;99331.44;5025634;27;103977;-75
2022/02/13 00:43:56;;;;;;;10.37;9.13;;;;;;;0.57;80.80;99332.63;5023704;27;103239;-74
2022/02/13 00:46:25;;;;;;;10.33;7.90;;;;;;;0.56;81.34;99333.50;5023273;27;103178;-74
2022/02/13 00:48:54;;;;;;;10.50;8.40;;;;;;;0.51;81.45;99337.09;5023098;27;102533;-74
2022/02/13 00:51:22;;;;;;;12.83;9.83;;;;;;;0.35;81.84;99325.31;5024620;27;102566;-74
2022/02/13 00:53:51;;;;;;;11.20;9.43;;;;;;;0.31;82.45;99329.72;5018662;27;103030;-74
2022/02/13 00:56:20;;;;;;;12.43;8.90;;;;;;;0.21;82.81;99330.81;5021424;27;103127;-74
2022/02/13 00:58:48;;;;;;;13.10;10.23;;;;;;;0.31;82.78;99329.72;5024787;27;102762;-74
2022/02/13 01:01:16;;;;;;;12.20;9.83;;;;;;;0.32;82.14;99328.84;5028522;27;103018;-74
2022/02/13 01:03:46;;;;;;;10.17;9.07;;;;;;;0.33;82.06;99327.97;5019808;27;104160;-74
2022/02/13 01:06:14;;;;;;;10.97;8.87;;;;;;;0.26;81.99;99326.38;5024940;27;103158;-77
2022/02/13 01:08:45;;;;;;;12.57;9.67;;;;;;;0.28;81.96;99324.56;5027858;27;102595;-77
2022/02/13 01:11:13;;;;;;;10.93;8.40;;;;;;;0.38;82.04;99326.09;5023152;27;102970;-74
2022/02/13 01:13:42;;;;;;;10.97;9.37;;;;;;;0.33;81.80;99324.50;5024648;27;104072;-74
2022/02/13 01:16:11;;;;;;;11.13;8.93;;;;;;;0.36;81.57;99324.44;5024235;27;103305;-77
2022/02/13 01:18:38;;;;;;;11.53;9.13;;;;;;;0.38;81.82;99314.84;5027814;27;102531;-74
2022/02/13 01:21:08;;;;;;;12.10;10.13;;;;;;;0.28;81.70;99310.75;5023443;27;104435;-73
2022/02/13 01:23:36;;;;;;;11.63;10.07;;;;;;;0.28;81.82;99315.94;5020311;27;104153;-74
2022/02/13 01:26:04;;;;;;;10.53;8.30;;;;;;;0.40;81.55;99316.53;5021483;27;103199;-76
2022/02/13 01:28:35;;;;;;;9.87;8.60;;;;;;;0.44;81.45;99310.38;5032904;27;103124;-77
2022/02/13 01:31:04;;;;;;;11.37;8.57;;;;;;;0.43;81.12;99310.41;5024470;27;102626;-77
2022/02/13 01:33:32;;;;;;;11.80;9.40;;;;;;;0.34;81.54;99308.00;5024982;27;103773;-77
2022/02/13 01:36:02;;;;;;;9.77;8.10;;;;;;;0.36;81.47;99309.69;5023495;27;103225;-77
2022/02/13 01:38:32;;;;;;;11.93;8.73;;;;;;;0.44;81.53;99315.59;5029237;27;102618;-77
2022/02/13 01:41:00;;;;;;;11.53;9.10;;;;;;;0.47;81.38;99310.31;5026903;27;102874;-77
2022/02/13 01:43:30;;;;;;;10.33;8.47;;;;;;;0.51;81.42;99313.69;5029401;27;103194;-77
2022/02/13 01:45:59;;;;;;;10.47;9.33;;;;;;;0.45;81.16;99309.47;5027289;27;103201;-74
2022/02/13 01:48:29;;;;;;;11.80;8.63;;;;;;;0.42;81.05;99308.72;5029511;27;102471;-74
2022/02/13 01:50:57;;;;;;;14.60;9.47;;;;;;;0.16;81.49;99306.66;5022763;27;102670;-74
2022/02/13 01:53:46;;;;;;;9.50;8.23;;;;;;;0.27;82.27;99311.63;5026307;27;104378;-74
2022/02/13 01:56:16;;;;;;;13.10;9.90;;;;;;;0.37;81.88;99308.78;5024187;27;102730;-74
2022/02/13 01:58:46;;;;;;;12.07;10.00;;;;;;;0.46;82.14;99308.59;5026297;27;102623;-76
2022/02/13 02:01:14;;;;;;;9.73;8.50;;;;;;;0.49;81.35;99307.66;5016642;27;103764;-77
2022/02/13 02:03:42;;;;;;;9.93;8.13;;;;;;;0.52;81.16;99305.88;5020041;27;104255;-77
2022/02/13 02:06:10;;;;;;;11.27;9.17;;;;;;;0.51;81.16;99306.75;5023655;27;103185;-77
2022/02/13 02:08:38;;;;;;;10.07;8.67;;;;;;;0.54;80.96;99298.00;5024291;27;102956;-77
2022/02/13 02:11:10;;;;;;;9.57;8.13;;;;;;;0.54;81.25;99290.22;5023553;27;103724;-77
2022/02/13 02:13:38;;;;;;;8.90;7.60;;;;;;;0.54;81.01;99285.00;5021234;27;103153;-74
2022/02/13 02:16:08;;;;;;;8.57;7.07;;;;;;;0.55;81.11;99292.78;5021623;27;102728;-74
2022/02/13 02:18:36;;;;;;;11.07;9.17;;;;;;;0.47;81.43;99292.13;5020519;27;102592;-74
2022/02/13 02:21:05;;;;;;;10.53;8.90;;;;;;;0.49;81.60;99287.72;5024090;27;102713;-74
2022/02/13 02:23:35;;;;;;;10.97;8.73;;;;;;;0.50;81.74;99286.00;5018397;27;104266;-74
2022/02/13 02:26:03;;;;;;;11.77;9.17;;;;;;;0.47;81.28;99281.72;5021248;27;103245;-74
2022/02/13 02:28:31;;;;;;;9.40;7.60;;;;;;;0.50;81.58;99276.44;5022726;27;102751;-74
2022/02/13 02:31:02;;;;;;;9.00;7.37;;;;;;;0.54;81.65;99283.28;5019409;27;102717;-74
2022/02/13 02:33:30;;;;;;;8.60;7.60;;;;;;;0.55;81.66;99272.00;5022158;27;103212;-74
2022/02/13 02:35:58;;;;;;;10.27;7.87;;;;;;;0.56;81.37;99278.06;5023753;27;103624;-74
2022/02/13 02:38:26;;;;;;;9.90;7.23;;;;;;;0.57;81.30;99267.59;5021388;27;102624;-74
2022/02/13 02:40:55;;;;;;;8.83;7.93;;;;;;;0.56;81.42;99268.47;5023264;27;103689;-74
2022/02/13 02:43:24;;;;;;;10.23;8.47;;;;;;;0.52;81.40;99260.81;5022352;27;104067;-74
2022/02/13 02:45:52;;;;;;;8.90;7.77;;;;;;;0.54;81.62;99264.22;5029844;27;103212;-74
2022/02/13 02:48:20;;;;;;;10.43;8.83;;;;;;;0.42;81.00;99260.16;5025887;27;102674;-74
2022/02/13 02:50:48;;;;;;;11.03;8.47;;;;;;;0.38;82.13;99257.66;5022800;27;103859;-77
2022/02/13 02:53:16;;;;;;;12.70;9.17;;;;;;;0.41;81.98;99261.06;5027782;27;103934;-77
2022/02/13 02:55:44;;;;;;;12.30;9.63;;;;;;;0.39;81.89;99260.22;5028688;27;103201;-77
2022/02/13 02:58:16;;;;;;;11.43;9.33;;;;;;;0.44;81.51;99248.00;5025231;27;102555;-77
2022/02/13 03:00:44;;;;;;;9.87;8.67;;;;;;;0.50;81.53;99253.06;5026497;27;102652;-77
2022/02/13 03:03:12;;;;;;;9.17;8.27;;;;;;;0.51;81.35;99248.69;5020525;27;103277;-74
2022/02/13 03:05:40;;;;;;;11.17;9.13;;;;;;;0.51;81.58;99239.13;5021224;27;103260;-77
2022/02/13 03:08:08;;;;;;;11.97;9.83;;;;;;;0.53;81.38;99234.75;5024425;27;102515;-74
2022/02/13 03:10:36;;;;;;;9.20;8.10;;;;;;;0.55;81.53;99230.38;5025651;27;102897;-74
2022/02/13 03:13:05;;;;;;;9.00;7.57;;;;;;;0.56;81.66;99232.06;5026568;27;103347;-77
2022/02/13 03:15:34;;;;;;;10.37;8.73;;;;;;;0.54;81.38;99233.88;5024698;27;103209;-78
2022/02/13 03:18:07;;;;;;;10.30;8.77;;;;;;;0.53;81.54;99226.94;5022678;27;102776;-76
2022/02/13 03:20:35;;;;;;;10.43;9.27;;;;;;;0.46;81.44;99235.81;5021007;27;102686;-74
2022/02/13 03:23:04;;;;;;;8.03;7.23;;;;;;;0.47;81.93;99227.13;5020416;27;104300;-78
2022/02/13 03:25:32;;;;;;;11.70;9.30;;;;;;;0.45;81.96;99231.47;5019461;27;104363;-77
2022/02/13 03:28:00;;;;;;;10.83;9.60;;;;;;;0.36;82.00;99231.72;5023820;27;102675;-77
2022/02/13 03:30:30;;;;;;;11.57;10.23;;;;;;;0.39;82.34;99223.81;5020693;27;102625;-74
2022/02/13 03:33:00;;;;;;;11.17;9.30;;;;;;;0.39;82.10;99229.00;5022294;27;103336;-74
2022/02/13 03:35:28;;;;;;;9.63;8.00;;;;;;;0.45;81.89;99228.88;5018984;27;103192;-74
2022/02/13 03:37:56;;;;;;;9.47;8.43;;;;;;;0.47;81.77;99227.13;5022830;27;102559;-74
2022/02/13 03:40:25;;;;;;;10.77;8.43;;;;;;;0.49;81.60;99230.53;5022719;27;102690;-74
2022/02/13 03:42:54;;;;;;;10.57;9.03;;;;;;;0.47;81.74;99224.53;5025974;27;103909;-74
2022/02/13 03:45:22;;;;;;;10.53;8.23;;;;;;;0.42;82.34;99217.72;5025386;27;103052;-74
2022/02/13 03:47:50;;;;;;;10.03;8.77;;;;;;;0.44;82.26;99222.00;5021110;27;102950;-77
2022/02/13 03:50:22;;;;;;;10.70;8.83;;;;;;;0.44;82.35;99221.13;5024338;27;102760;-77
2022/02/13 03:52:50;;;;;;;9.10;7.87;;;;;;;0.44;82.20;99222.00;5027132;27;103626;-77
2022/02/13 03:55:18;;;;;;;10.43;9.30;;;;;;;0.34;82.14;99225.69;5021788;27;103252;-73
2022/02/13 03:57:49;;;;;;;9.27;8.27;;;;;;;0.36;82.47;99218.72;5023103;27;102677;-77
2022/02/13 04:00:21;;;;;;;9.50;8.03;;;;;;;0.39;82.57;99223.81;5025772;27;102640;-74
2022/02/13 04:02:55;;;;;;;11.73;8.63;;;;;;;0.39;82.57;99229.00;5019037;27;104139;-77
2022/02/13 04:05:25;;;;;;;11.00;8.80;;;;;;;0.42;82.73;99223.75;5020875;27;102604;-77
2022/02/13 04:07:53;;;;;;;10.33;8.07;;;;;;;0.37;83.02;99222.16;5023040;27;102657;-77
2022/02/13 04:10:21;;;;;;;11.57;9.80;;;;;;;0.39;82.94;99218.63;5024729;27;102809;-77
2022/02/13 04:12:49;;;;;;;9.63;8.73;;;;;;;0.33;83.38;99213.59;5020625;27;103243;-77
2022/02/13 04:15:17;;;;;;;12.33;8.93;;;;;;;0.36;83.38;99226.53;5023185;27;102640;-77
2022/02/13 04:17:48;;;;;;;10.27;8.43;;;;;;;0.42;82.87;99220.31;5021613;27;102925;-74
2022/02/13 04:20:18;;;;;;;10.13;8.60;;;;;;;0.48;83.12;99220.16;5017832;27;103996;-74
2022/02/13 04:22:47;;;;;;;12.33;9.03;;;;;;;0.45;83.00;99223.69;5020319;27;103224;-77
2022/02/13 04:25:17;;;;;;;11.53;9.17;;;;;;;0.42;82.81;99218.56;5023667;27;103220;-77
2022/02/13 04:27:45;;;;;;;9.87;8.10;;;;;;;0.45;82.74;99215.88;5022164;27;102607;-78
2022/02/13 04:30:14;;;;;;;10.37;8.67;;;;;;;0.42;82.73;99213.34;5021316;27;103163;-77
2022/02/13 04:32:42;;;;;;;11.63;8.00;;;;;;;0.40;83.17;99220.34;5025830;27;103725;-77
2022/02/13 04:35:10;;;;;;;12.40;8.83;;;;;;;0.40;83.04;99215.13;5020429;27;103194;-77
2022/02/13 04:37:41;;;;;;;10.47;9.37;;;;;;;0.42;82.60;99223.75;5028628;27;102657;-77
2022/02/13 04:40:12;;;;;;;11.53;8.53;;;;;;;0.51;82.32;99218.34;5029263;27;102963;-77
2022/02/13 04:42:42;;;;;;;9.50;8.47;;;;;;;0.52;82.50;99219.19;5025842;27;103216;-74
2022/02/13 04:45:10;;;;;;;9.83;8.13;;;;;;;0.56;82.30;99216.47;5030033;27;104782;-74
2022/02/13 04:47:39;;;;;;;8.00;7.20;;;;;;;0.59;82.28;99216.41;5025138;27;102624;-74
2022/02/13 04:50:08;;;;;;;7.63;6.83;;;;;;;0.56;81.88;99219.06;5024900;27;102670;-74
2022/02/13 04:52:39;;;;;;;12.13;8.70;;;;;;;0.34;82.47;99215.28;5021049;27;103337;-74
2022/02/13 04:55:08;;;;;;;9.87;7.40;;;;;;;0.26;83.07;99206.81;5021924;27;103221;-74
2022/02/13 04:57:37;;;;;;;11.37;8.70;;;;;;;0.30;82.69;99200.66;5026936;27;102644;-74
2022/02/13 05:00:07;;;;;;;10.73;7.70;;;;;;;0.34;82.93;99201.41;5021609;27;103934;-74
2022/02/13 05:02:37;;;;;;;10.53;8.30;;;;;;;0.33;83.03;99198.00;5021432;27;103322;-74
2022/02/13 05:05:06;;;;;;;9.73;7.40;;;;;;;0.26;83.17;99191.22;5026870;27;103186;-77
2022/02/13 05:07:34;;;;;;;9.70;8.67;;;;;;;0.20;83.16;99183.56;5025954;27;102614;-74
2022/02/13 05:10:04;;;;;;;11.50;9.60;;;;;;;0.27;83.59;99182.53;5022477;27;102719;-74
2022/02/13 05:12:33;;;;;;;10.17;8.77;;;;;;;0.31;83.18;99181.56;5025025;27;103199;-74
2022/02/13 05:15:02;;;;;;;8.60;7.70;;;;;;;0.36;83.24;99171.94;5024545;27;103235;-77
2022/02/13 05:17:30;;;;;;;11.57;8.53;;;;;;;0.34;83.13;99176.28;5027448;27;102998;-73
2022/02/13 05:19:58;;;;;;;9.13;7.77;;;;;;;0.36;83.16;99179.72;5021638;27;103518;-74
2022/02/13 05:22:26;;;;;;;9.40;7.97;;;;;;;0.39;83.01;99173.59;5025288;27;103254;-76
2022/02/13 05:24:54;;;;;;;10.07;7.47;;;;;;;0.43;82.46;99176.06;5026932;27;103175;-74
2022/02/13 05:27:22;;;;;;;10.77;8.17;;;;;;;0.38;83.14;99172.75;5024410;27;102573;-76
2022/02/13 05:29:52;;;;;;;12.47;7.57;;;;;;;0.43;82.77;99164.81;5027199;27;103978;-74
2022/02/13 05:32:22;;;;;;;8.20;7.40;;;;;;;0.41;82.83;99167.47;5029517;27;104382;-74
2022/02/13 05:34:50;;;;;;;9.00;7.93;;;;;;;0.39;82.97;99166.63;5025970;27;103270;-73
2022/02/13 05:37:18;;;;;;;10.93;8.43;;;;;;;0.43;82.94;99159.63;5022052;27;102742;-76
2022/02/13 05:39:49;;;;;;;9.60;8.27;;;;;;;0.41;83.06;99159.66;5027968;27;103690;-74
2022/02/13 05:42:17;;;;;;;10.90;8.43;;;;;;;0.36;83.05;99161.53;5026979;27;103212;-77
2022/02/13 05:44:45;;;;;;;10.30;8.60;;;;;;;0.38;83.32;99162.34;5027590;27;102554;-73
2022/02/13 05:47:16;;;;;;;10.73;8.90;;;;;;;0.31;83.40;99160.75;5025240;27;102710;-73
2022/02/13 05:49:45;;;;;;;9.17;7.43;;;;;;;0.29;83.14;99154.75;5024261;27;104048;-74
2022/02/13 05:52:13;;;;;;;9.77;7.53;;;;;;;0.23;83.11;99154.91;5026746;27;103222;-74
2022/02/13 05:54:41;;;;;;;10.87;8.57;;;;;;;0.21;83.59;99155.81;5022829;27;103696;-73
2022/02/13 05:57:09;;;;;;;10.17;9.07;;;;;;;-0.06;85.03;99152.13;5024153;27;102818;-73
2022/02/13 05:59:38;;;;;;;12.93;9.87;;;;;;;-0.03;84.85;99146.88;5012865;27;103952;-74
2022/02/13 06:02:06;;;;;;;10.77;7.60;;;;;;;0.01;85.50;99143.31;5031786;27;103210;-77
2022/02/13 06:04:34;;;;;;;10.13;8.80;;;;;;;-0.03;85.31;99141.69;5027446;27;102629;-74
2022/02/13 06:07:04;;;;;;;8.60;7.70;;;;;;;0.08;85.06;99144.03;5017503;27;102803;-74
2022/02/13 06:09:32;;;;;;;14.43;9.00;;;;;;;0.15;84.54;99146.44;5022856;27;102965;-77
2022/02/13 06:12:00;;;;;;;11.03;8.73;;;;;;;0.12;84.99;99145.63;5027839;27;103357;-74
2022/02/13 06:14:28;;;;;;;10.13;8.23;;;;;;;0.18;84.99;99141.16;5023956;27;103262;-74
2022/02/13 06:16:57;;;;;;;8.10;7.00;;;;;;;0.13;84.92;99142.16;5027724;27;102593;-77
2022/02/13 06:19:25;;;;;;;9.93;8.33;;;;;;;0.22;84.55;99132.41;5024894;27;103828;-74
2022/02/13 06:21:54;;;;;;;9.60;8.60;;;;;;;0.26;84.19;99136.63;5028507;27;103436;-77
2022/02/13 06:24:25;;;;;;;11.53;8.13;;;;;;;0.24;84.37;99141.03;5027717;27;103201;-74
2022/02/13 06:26:53;;;;;;;9.87;8.00;;;;;;;0.30;84.51;99140.88;5020013;27;102644;-74
2022/02/13 06:29:22;;;;;;;11.03;8.03;;;;;;;0.30;84.46;99135.69;5025479;27;103756;-77
2022/02/13 06:31:53;;;;;;;9.60;8.03;;;;;;;0.28;84.47;99132.25;5031934;27;104548;-77
2022/02/13 06:34:21;;;;;;;9.97;7.93;;;;;;;0.29;84.50;99133.09;5026713;27;104121;-77
2022/02/13 06:36:49;;;;;;;10.63;8.30;;;;;;;0.37;84.10;99132.03;5024171;27;102561;-74
2022/02/13 06:39:17;;;;;;;9.77;7.80;;;;;;;0.43;84.21;99128.41;5027229;27;103841;-76
2022/02/13 06:41:47;;;;;;;12.20;8.70;;;;;;;0.45;83.78;99130.09;5018596;27;103225;-74
2022/02/13 06:44:15;;;;;;;10.67;8.53;;;;;;;0.37;83.50;99132.03;5025024;27;103306;-77
2022/02/13 06:46:44;;;;;;;9.87;7.50;;;;;;;0.27;84.18;99125.34;5031757;27;102643;-77
2022/02/13 06:49:12;;;;;;;10.10;8.10;;;;;;;0.32;84.01;99123.50;5023432;27;102983;-74
2022/02/13 06:51:40;;;;;;;11.80;8.27;;;;;;;0.36;83.98;99125.13;5021432;27;103853;-74
2022/02/13 06:54:08;;;;;;;8.03;7.07;;;;;;;0.44;83.69;99118.00;5026432;27;103189;-78
2022/02/13 06:56:36;;;;;;;11.07;8.43;;;;;;;0.21;84.16;99119.44;5016359;27;103149;-74
2022/02/13 06:59:08;;;;;;;10.77;8.07;;;;;;;0.27;84.99;99120.16;5016727;27;102705;-74
2022/02/13 07:01:36;;;;;;;11.60;8.43;;;;;;;0.46;84.35;99115.34;5018785;27;103309;-77
2022/02/13 07:04:05;;;;;;;13.37;8.23;;;;;;;0.40;84.01;99116.34;5023422;27;103004;-77
2022/02/13 07:06:33;;;;;;;10.73;8.20;;;;;;;0.39;85.83;99125.03;5023723;27;102646;-74
2022/02/13 07:09:01;;;;;;;10.90;9.07;;;;;;;0.46;84.70;99123.16;5026637;27;102721;-77
2022/02/13 07:11:29;;;;;;;10.40;8.43;;;;;;;0.69;84.16;99117.34;5021951;27;103809;-77
2022/02/13 07:13:57;;;;;;;9.07;7.37;;;;;;;0.92;83.60;99125.41;5025299;27;103238;-77
2022/02/13 07:16:29;;;;;;;12.33;9.00;;;;;;;1.09;82.72;99118.88;5029518;27;102553;-77
2022/02/13 07:18:57;;;;;;;11.67;8.97;;;;;;;1.27;81.51;99114.88;5026235;27;102669;-77
2022/02/13 07:21:25;;;;;;;9.27;8.37;;;;;;;1.20;81.69;99121.16;5024078;27;103181;-76
2022/02/13 07:23:53;;;;;;;8.87;7.43;;;;;;;1.59;81.22;99127.81;5017142;27;103190;-74
2022/02/13 07:26:23;;;;;;;9.57;8.07;;;;;;;1.86;80.45;99122.66;5015973;27;102612;-74
2022/02/13 07:29:00;;;;;;;10.43;8.27;;;;;;;2.03;79.38;99120.38;5013065;27;102634;-76
2022/02/13 07:31:30;;;;;;;8.67;6.33;;;;;;;2.33;78.79;99112.44;5015100;27;104251;-74
2022/02/13 07:33:59;;;;;;;12.50;9.20;;;;;;;2.55;77.69;99109.13;5016914;27;103159;-74
2022/02/13 07:36:28;;;;;;;10.00;7.07;;;;;;;2.79;77.08;99096.09;5033813;27;102641;-74
2022/02/13 07:38:56;;;;;;;10.50;8.80;;;;;;;2.49;76.44;99099.75;5022032;27;102813;-74
2022/02/13 07:41:25;;;;;;;12.10;7.83;;;;;;;2.45;76.98;99097.28;5020711;27;103869;-74
2022/02/13 07:43:56;;;;;;;8.23;7.23;;;;;;;2.38;77.74;99101.03;5024420;27;103152;-75
2022/02/13 07:46:24;;;;;;;11.80;7.80;;;;;;;2.66;77.56;99096.59;5025378;27;102530;-75
2022/02/13 07:48:54;;;;;;;11.37;7.67;;;;;;;3.25;76.49;99097.06;5022778;27;103566;-74
2022/02/13 07:51:22;;;;;;;8.80;7.40;;;;;;;3.19;74.08;99092.06;5021897;27;103885;-74
2022/02/13 07:53:50;;;;;;;7.90;6.60;;;;;;;3.45;75.39;99097.19;5021049;27;102915;-74
2022/02/13 07:56:18;;;;;;;9.63;7.07;;;;;;;3.24;75.11;99096.22;5027597;27;102638;-74
2022/02/13 07:58:46;;;;;;;10.30;6.97;;;;;;;3.45;74.24;99084.97;5023071;27;103569;-77
2022/02/13 08:01:17;;;;;;;8.43;6.60;;;;;;;3.55;74.47;99090.72;5026213;27;103285;-76
2022/02/13 08:03:46;;;;;;;6.53;5.63;;;;;;;4.15;73.51;99089.22;5004374;27;103223;-77
2022/02/13 08:06:21;;;;;;;9.10;6.03;;;;;;;4.33;73.12;99086.72;5018935;27;102532;-77
2022/02/13 08:08:50;;;;;;;9.60;6.60;;;;;;;4.43;71.36;99081.97;5013741;27;102970;-77
2022/02/13 08:11:19;;;;;;;7.50;6.43;;;;;;;5.03;69.12;99079.31;5014364;27;104132;-76
2022/02/13 08:13:48;;;;;;;8.83;6.73;;;;;;;5.19;68.48;99080.34;5003295;27;103199;-75
2022/02/13 08:16:18;;;;;;;7.43;6.60;;;;;;;5.43;68.48;99077.53;5015750;27;102643;-75
2022/02/13 08:18:46;;;;;;;8.10;6.83;;;;;;;5.50;67.37;99076.34;5018171;27;104393;-71
2022/02/13 08:21:17;;;;;;;8.03;7.30;;;;;;;5.84;66.70;99073.84;5019804;27;103212;-71
2022/02/13 08:23:47;;;;;;;8.43;6.90;;;;;;;5.59;66.78;99068.91;5013533;27;103222;-71
2022/02/13 08:26:16;;;;;;;10.40;7.13;;;;;;;5.59;66.39;99068.06;5024873;27;102741;-71
2022/02/13 08:28:44;;;;;;;9.27;6.33;;;;;;;6.12;65.74;99062.94;5019851;27;102667;-71
2022/02/13 08:31:13;;;;;;;8.53;6.50;;;;;;;6.49;64.55;99067.19;5019298;27;104431;-71
2022/02/13 08:33:41;;;;;;;7.07;5.60;;;;;;;6.96;64.84;99070.91;5011652;27;103922;-71
2022/02/13 08:36:09;;;;;;;5.70;4.70;;;;;;;7.17;63.13;99072.41;5009085;27;102863;-71
2022/02/13 08:38:38;;;;;;;6.63;5.53;;;;;;;7.17;62.12;99061.91;5011489;27;104244;-72
2022/02/13 08:41:07;;;;;;;6.93;6.10;;;;;;;6.95;63.23;99062.19;5010789;27;103195;-74
2022/02/13 08:43:36;;;;;;;8.77;5.80;;;;;;;7.44;62.33;99054.31;5005720;27;103462;-75
2022/02/13 08:46:04;;;;;;;10.33;6.50;;;;;;;7.53;61.97;99059.06;5012135;27;102710;-75
2022/02/13 08:48:32;;;;;;;7.33;5.87;;;;;;;7.34;62.16;99061.84;5013489;27;102825;-75
2022/02/13 08:51:00;;;;;;;9.00;6.20;;;;;;;7.80;61.55;99056.72;5012361;27;102734;-73
2022/02/13 08:53:29;;;;;;;12.97;6.10;;;;;;;8.47;61.48;99049.38;5033246;27;104148;-74
2022/02/13 08:55:57;;;;;;;7.90;6.37;;;;;;;7.97;59.56;99046.13;5019871;27;102628;-74
2022/02/13 08:58:26;;;;;;;8.53;6.37;;;;;;;8.12;59.00;99040.81;5004795;27;104205;-74
2022/02/13 09:00:56;;;;;;;8.87;5.97;;;;;;;8.36;60.48;99043.88;5008249;27;104104;-74
2022/02/13 09:03:24;;;;;;;9.77;6.40;;;;;;;8.65;58.61;99037.72;5014977;27;103249;-73
2022/02/13 09:05:52;;;;;;;7.57;6.30;;;;;;;8.85;58.56;99035.69;5012850;27;102750;-70
2022/02/13 09:08:20;;;;;;;10.43;6.63;;;;;;;8.53;59.24;99035.00;5014286;27;102777;-70
2022/02/13 09:10:48;;;;;;;6.77;5.87;;;;;;;8.48;58.47;99039.66;5015844;27;103802;-70
2022/02/13 09:13:18;;;;;;;7.77;6.03;;;;;;;8.35;59.69;99033.41;5014181;27;103059;-70
2022/02/13 09:15:47;;;;;;;11.63;6.50;;;;;;;8.23;60.04;99034.94;5013534;27;104012;-70
2022/02/13 09:18:15;;;;;;;6.93;6.00;;;;;;;8.02;59.08;99036.19;5010755;27;103707;-70
2022/02/13 09:20:45;;;;;;;7.60;6.20;;;;;;;8.27;58.60;99031.22;5025764;27;103225;-71
2022/02/13 09:23:17;;;;;;;8.97;5.67;;;;;;;8.58;58.93;99025.03;5016203;27;103203;-71
2022/02/13 09:25:46;;;;;;;9.53;6.63;;;;;;;8.62;57.77;99026.53;5016121;27;102767;-71
2022/02/13 09:28:15;;;;;;;7.57;6.47;;;;;;;8.11;59.07;99017.25;5020346;27;103661;-71
2022/02/13 09:30:47;;;;;;;6.50;5.80;;;;;;;8.39;59.44;99017.38;5018410;27;104104;-71
2022/02/13 09:33:24;;;;;;;7.53;6.43;;;;;;;8.74;58.99;99021.38;5016997;27;104171;-71
2022/02/13 09:35:54;;;;;;;7.50;6.20;;;;;;;9.31;57.39;99018.78;5015784;27;103070;-71
2022/02/13 09:38:23;;;;;;;9.50;6.50;;;;;;;9.20;56.94;99018.59;5016204;27;103839;-71
2022/02/13 09:40:52;;;;;;;8.23;6.60;;;;;;;8.90;57.57;99016.03;5014699;27;103370;-71
2022/02/13 09:43:21;;;;;;;7.73;5.60;;;;;;;9.27;57.26;99009.34;5017575;27;104297;-75
2022/02/13 09:45:53;;;;;;;7.60;6.23;;;;;;;8.85;57.43;99011.97;5016962;27;102606;-74
2022/02/13 09:48:25;;;;;;;10.43;6.40;;;;;;;8.99;57.17;98999.66;5014047;27;102695;-75
2022/02/13 09:50:58;;;;;;;7.00;6.30;;;;;;;9.22;57.58;99003.53;5011857;27;103485;-75
2022/02/13 09:53:27;;;;;;;8.43;6.50;;;;;;;9.06;57.42;98995.72;5016930;27;103222;-76
2022/02/13 09:55:58;;;;;;;9.60;6.10;;;;;;;9.20;57.13;98992.25;5014100;27;102815;-74
2022/02/13 09:58:26;;;;;;;8.53;6.20;;;;;;;9.12;57.82;98990.06;5015946;27;102760;-74
2022/02/13 10:00:56;;;;;;;11.90;6.83;;;;;;;9.47;57.00;98985.22;5014146;27;103406;-74
2022/02/13 10:03:26;;;;;;;10.77;7.30;;;;;;;9.11;57.25;98977.00;5015590;27;103216;-74
2022/02/13 10:05:57;;;;;;;7.00;5.93;;;;;;;9.23;57.32;98981.50;5011344;27;102721;-73
2022/02/13 10:08:30;;;;;;;9.57;6.57;;;;;;;9.27;57.29;98964.53;5014900;27;102667;-73
2022/02/13 10:11:13;;;;;;;9.27;7.00;;;;;;;9.16;57.76;98970.50;5021141;27;102603;-74
2022/02/13 10:13:51;;;;;;;9.27;7.07;;;;;;;9.29;57.50;98960.84;5013064;27;103262;-73
2022/02/13 10:16:22;;;;;;;8.70;6.03;;;;;;;9.50;58.02;98952.53;5017862;27;102645;-73
2022/02/13 10:18:56;;;;;;;7.77;6.90;;;;;;;9.90;57.00;98952.50;5015779;27;102781;-73
2022/02/13 10:21:36;;;;;;;8.37;6.20;;;;;;;9.62;57.55;98942.06;5015410;27;104114;-73
2022/02/13 10:24:18;;;;;;;7.30;6.47;;;;;;;9.74;56.81;98943.88;5013178;27;102942;-74
2022/02/13 10:26:50;;;;;;;7.60;6.40;;;;;;;9.70;57.05;98934.50;5013867;27;102709;-74
2022/02/13 10:29:22;;;;;;;8.37;6.77;;;;;;;9.80;57.21;98940.00;5014825;27;102991;-75
2022/02/13 10:32:10;;;;;;;10.47;6.90;;;;;;;9.76;56.51;98933.25;5014970;27;103363;-74
2022/02/13 10:34:38;;;;;;;12.47;7.23;;;;;;;9.74;57.05;98928.06;5014386;27;103314;-75
2022/02/13 10:37:08;;;;;;;7.53;6.03;;;;;;;10.03;56.63;98925.28;5012818;27;102750;-75
2022/02/13 10:39:45;;;;;;;8.73;6.43;;;;;;;9.98;56.41;98922.13;5013379;27;104250;-74
2022/02/13 10:42:14;;;;;;;9.33;6.90;;;;;;;10.20;56.25;98911.84;5010128;27;104405;-74
2022/02/13 10:44:43;;;;;;;9.17;5.77;;;;;;;10.41;55.45;98910.41;5016024;27;104790;-74
2022/02/13 10:47:24;;;;;;;6.73;6.10;;;;;;;10.47;54.58;98912.59;5020245;27;102737;-74
2022/02/13 10:49:53;;;;;;;7.87;6.37;;;;;;;10.72;54.90;98903.84;5018865;27;102959;-74
2022/02/13 10:52:23;;;;;;;10.50;6.80;;;;;;;10.83;54.67;98901.31;5021719;27;103258;-75
2022/02/13 10:54:54;;;;;;;9.43;6.40;;;;;;;10.79;54.42;98890.09;5027075;27;103323;-74
2022/02/13 10:57:23;;;;;;;6.90;6.07;;;;;;;10.94;53.83;98883.75;5037196;27;103552;-73
2022/02/13 10:59:51;;;;;;;8.33;5.73;;;;;;;11.15;53.74;98877.84;5031023;27;103596;-73
2022/02/13 11:02:20;;;;;;;10.70;6.57;;;;;;;11.13;53.90;98871.84;5022387;27;103373;-75
2022/02/13 11:04:48;;;;;;;8.47;6.27;;;;;;;11.28;53.94;98868.09;5017661;27;103181;-75
2022/02/13 11:07:20;;;;;;;7.63;5.97;;;;;;;11.48;53.23;98859.56;5018877;27;103085;-75
2022/02/13 11:09:51;;;;;;;8.67;5.90;;;;;;;11.81;52.29;98854.44;5018399;27;103985;-75
2022/02/13 11:12:20;;;;;;;6.60;4.67;;;;;;;12.04;51.33;98850.88;5020776;27;104070;-75
2022/02/13 11:14:48;;;;;;;9.77;4.70;;;;;;;12.06;49.87;98848.16;5022819;27;102968;-75
2022/02/13 11:17:30;;;;;;;5.23;4.30;;;;;;;12.21;50.66;98844.31;5021780;27;102630;-74
2022/02/13 11:19:58;;;;;;;9.73;4.70;;;;;;;12.34;49.66;98838.94;5023289;27;103990;-74
2022/02/13 11:22:32;;;;;;;6.03;4.10;;;;;;;12.49;49.50;98830.63;5024764;27;103265;-74
2022/02/13 11:25:03;;;;;;;6.77;4.80;;;;;;;12.53;49.29;98831.22;5034566;27;103694;-76
2022/02/13 11:27:53;;;;;;;8.40;4.40;;;;;;;12.67;47.83;98829.19;5019249;27;102713;-75
2022/02/13 11:30:43;;;;;;;6.70;4.53;;;;;;;12.74;48.70;98816.31;5023116;27;102714;-76
2022/02/13 11:33:35;;;;;;;7.47;4.60;;;;;;;13.01;47.87;98827.34;5021328;27;103404;-75
2022/02/13 11:36:05;;;;;;;5.93;4.17;;;;;;;13.28;45.79;98813.69;5018927;27;103233;-76
2022/02/13 11:39:03;;;;;;;5.90;3.77;;;;;;;13.68;44.24;98801.50;5031244;27;102656;-74
2022/02/13 11:42:01;;;;;;;8.07;4.60;;;;;;;13.52;46.75;98794.94;4951431;28;103939;-74